createdAt,value
2024-01-17T00:00:50.323Z,41.557046979865774
2024-01-17T00:04:10.777Z,40.993288590604024
2024-01-17T00:07:30.642Z,40.281879194630875
2024-01-17T00:10:50.821Z,39.651006711409394
2024-01-17T00:15:49.858Z,41.18120805369127
2024-01-17T00:19:10.844Z,42.07382550335571
2024-01-17T00:24:22.043Z,41.40268456375839
2024-01-17T00:27:42.497Z,40.214765100671144
2024-01-17T00:31:55.054Z,40.59731543624161
2024-01-17T00:39:47.527Z,39.87248322147651
2024-01-17T00:43:08.326Z,40.20134228187919
2024-01-17T00:46:28.281Z,43.19463087248322
2024-01-17T00:49:48.601Z,41.83221476510067
2024-01-17T00:53:09.310Z,42.18120805369127
2024-01-17T00:56:29.594Z,43.23489932885906
2024-01-17T00:59:49.871Z,42.060402684563755
2024-01-17T01:03:32.557Z,42.946308724832214
2024-01-17T01:06:52.487Z,43.59060402684564
2024-01-17T01:10:12.893Z,45.1744966442953
2024-01-17T01:13:32.715Z,44.02684563758389
2024-01-17T01:16:53.296Z,44.58389261744966
2024-01-17T01:20:13.670Z,44.48993288590604
2024-01-17T01:23:33.893Z,43.53691275167785
2024-01-17T01:26:53.621Z,45.214765100671144
2024-01-17T01:33:05.020Z,43.40268456375839
2024-01-17T01:36:25.061Z,44.57046979865772
2024-01-17T01:42:05.669Z,45.577181208053695
2024-01-17T01:45:25.661Z,46.33557046979866
2024-01-17T01:48:46.384Z,44.41610738255034
2024-01-17T01:52:06.735Z,44.718120805369125
2024-01-17T01:55:26.701Z,43.48322147651007
2024-01-17T01:58:46.958Z,44.32214765100671
2024-01-17T02:06:54.285Z,46.02684563758389
2024-01-17T02:12:55.410Z,45.45637583892618
2024-01-17T02:16:16.279Z,45.29530201342282
2024-01-17T02:20:33.817Z,45.758389261744966
2024-01-17T02:23:54.336Z,45.50335570469799
2024-01-17T02:27:15.221Z,46.24832214765101
2024-01-17T02:30:35.828Z,44.90604026845637
2024-01-17T02:33:56.492Z,47.53691275167785
2024-01-17T02:37:17.031Z,46.4496644295302
2024-01-17T02:40:36.998Z,46.355704697986575
2024-01-17T02:43:56.571Z,46.38255033557047
2024-01-17T02:47:17.216Z,46.288590604026844
2024-01-17T02:50:37.206Z,46.053691275167786
2024-01-17T02:53:57.680Z,47.630872483221474
2024-01-17T02:57:18.207Z,46.11409395973154
2024-01-17T03:00:37.802Z,48.67785234899329
2024-01-17T03:06:12.560Z,47.47651006711409
2024-01-17T03:09:32.613Z,47.100671140939596
2024-01-17T03:12:52.373Z,47.79194630872483
2024-01-17T03:20:03.449Z,48.84563758389262
2024-01-17T03:23:23.498Z,47.10738255033557
2024-01-17T03:26:43.531Z,47.51677852348993
2024-01-17T03:30:04.628Z,47.13422818791946
2024-01-17T03:33:36.397Z,48.1744966442953
2024-01-17T03:36:56.872Z,47.691275167785236
2024-01-17T03:40:18.057Z,46.966442953020135
2024-01-17T03:43:38.030Z,44.97315436241611
2024-01-17T03:46:58.974Z,45.04026845637584
2024-01-17T03:50:19.049Z,44.59060402684564
2024-01-17T03:56:29.928Z,45.30201342281879
2024-01-17T03:59:49.957Z,45.0
2024-01-17T04:03:11.572Z,44.95973154362416
2024-01-17T04:09:36.764Z,46.13422818791946
2024-01-17T04:16:48.207Z,44.88590604026846
2024-01-17T04:20:08.667Z,44.65771812080537
2024-01-17T04:23:28.707Z,44.79865771812081
2024-01-17T04:26:49.057Z,41.83221476510067
2024-01-17T04:30:09.796Z,43.08724832214765
2024-01-17T04:33:30.044Z,42.24832214765101
2024-01-17T04:36:50.418Z,42.060402684563755
2024-01-17T04:40:11.075Z,42.12751677852349
2024-01-17T04:43:31.133Z,40.47651006711409
2024-01-17T04:46:50.985Z,40.18791946308725
2024-01-17T04:50:11.336Z,41.18791946308725
2024-01-17T04:53:32.242Z,40.604026845637584
2024-01-17T04:56:52.788Z,39.93288590604027
2024-01-17T05:00:15.443Z,38.67785234899329
2024-01-17T05:03:35.671Z,38.50335570469799
2024-01-17T05:09:06.944Z,40.09395973154363
2024-01-17T05:17:38.736Z,37.61744966442953
2024-01-17T05:20:58.499Z,37.69798657718121
2024-01-17T05:24:18.362Z,38.42953020134228
2024-01-17T05:27:37.798Z,38.308724832214764
2024-01-17T05:30:58.351Z,35.624161073825505
2024-01-17T05:34:19.429Z,38.88590604026846
2024-01-17T05:37:39.453Z,37.946308724832214
2024-01-17T05:41:00.415Z,36.006711409395976
2024-01-17T05:44:20.894Z,38.2751677852349
2024-01-17T05:47:41.239Z,37.14093959731544
2024-01-17T05:52:10.909Z,34.20134228187919
2024-01-17T05:55:30.847Z,35.10738255033557
2024-01-17T05:58:50.829Z,34.84563758389262
2024-01-17T06:02:11.099Z,35.07382550335571
2024-01-17T06:05:31.195Z,35.442953020134226
2024-01-17T06:08:51.350Z,34.604026845637584
2024-01-17T06:14:46.074Z,35.67785234899329
2024-01-17T06:18:06.355Z,37.241610738255034
2024-01-17T06:24:17.313Z,36.29530201342282
2024-01-17T06:27:36.891Z,34.58389261744966
2024-01-17T06:30:56.851Z,37.993288590604024
2024-01-17T06:34:17.564Z,37.31543624161074
2024-01-17T06:38:29.618Z,36.691275167785236
2024-01-17T06:42:50.234Z,34.67785234899329
2024-01-17T06:46:10.604Z,36.97986577181208
2024-01-17T06:49:36.034Z,35.12751677852349
2024-01-17T06:52:56.659Z,35.15436241610738
2024-01-17T06:56:18.249Z,37.711409395973156
2024-01-17T06:59:38.232Z,34.97315436241611
2024-01-17T07:03:42.792Z,34.87248322147651
2024-01-17T07:07:03.610Z,34.993288590604024
2024-01-17T07:10:24.654Z,33.43624161073826
2024-01-17T07:13:46.963Z,33.81879194630873
2024-01-17T07:17:08.617Z,33.40268456375839
2024-01-17T07:20:31.831Z,33.18791946308725
2024-01-17T07:25:26.092Z,32.8255033557047
2024-01-17T07:28:47.723Z,33.08724832214765
2024-01-17T07:33:51.496Z,32.577181208053695
2024-01-17T07:37:15.457Z,32.76510067114094
2024-01-17T07:40:37.183Z,30.738255033557046
2024-01-17T07:43:59.655Z,29.61744966442953
2024-01-17T07:50:22.650Z,29.86577181208054
2024-01-17T07:58:17.775Z,27.65771812080537
2024-01-17T08:03:22.503Z,30.40268456375839
2024-01-17T08:09:20.617Z,27.483221476510067
2024-01-17T08:12:40.874Z,25.7248322147651
2024-01-17T08:16:01.135Z,28.033557046979865
2024-01-17T08:19:31.449Z,26.986577181208055
2024-01-17T08:22:51.613Z,26.879194630872483
2024-01-17T08:26:12.204Z,27.369127516778523
2024-01-17T08:29:33.091Z,25.530201342281877
2024-01-17T08:32:52.991Z,27.93288590604027
2024-01-17T08:39:33.894Z,27.08053691275168
2024-01-17T08:42:53.832Z,29.161073825503355
2024-01-17T08:46:14.217Z,27.7248322147651
2024-01-17T08:49:34.182Z,26.57718120805369
2024-01-17T08:52:54.147Z,25.778523489932887
2024-01-17T08:59:49.043Z,26.107382550335572
2024-01-17T09:09:48.777Z,25.79194630872483
2024-01-17T09:13:10.600Z,27.604026845637584
2024-01-17T09:16:30.653Z,26.08053691275168
2024-01-17T09:25:11.859Z,27.697986577181208
2024-01-17T09:29:50.693Z,27.469798657718123
2024-01-17T09:33:11.746Z,26.97986577181208
2024-01-17T09:39:57.857Z,26.536912751677853
2024-01-17T09:44:03.945Z,29.08053691275168
2024-01-17T09:47:23.720Z,28.40268456375839
2024-01-17T09:50:43.698Z,27.892617449664428
2024-01-17T09:54:04.027Z,27.375838926174495
2024-01-17T09:57:23.469Z,25.778523489932887
2024-01-17T10:00:43.089Z,26.892617449664428
2024-01-17T10:07:22.552Z,27.684563758389263
2024-01-17T10:11:35.777Z,27.563758389261746
2024-01-17T10:14:55.743Z,27.16778523489933
2024-01-17T10:20:29.388Z,27.953020134228186
2024-01-17T10:23:50.497Z,26.44295302013423
2024-01-17T10:27:10.596Z,26.973154362416107
2024-01-17T10:30:30.484Z,26.187919463087248
2024-01-17T10:33:50.116Z,26.959731543624162
2024-01-17T10:37:11.176Z,26.610738255033556
2024-01-17T10:40:31.116Z,26.91275167785235
2024-01-17T10:43:51.178Z,28.93959731543624
2024-01-17T10:47:11.829Z,28.13422818791946
2024-01-17T10:50:31.652Z,27.516778523489933
2024-01-17T10:57:07.173Z,27.973154362416107
2024-01-17T11:00:26.905Z,28.006711409395972
2024-01-17T11:06:27.696Z,26.20805369127517
2024-01-17T11:09:48.813Z,28.093959731543624
2024-01-17T11:13:44.086Z,28.798657718120804
2024-01-17T11:17:04.876Z,27.7248322147651
2024-01-17T11:20:26.345Z,27.80536912751678
2024-01-17T11:23:48.884Z,28.973154362416107
2024-01-17T11:27:09.878Z,28.536912751677853
2024-01-17T11:30:30.419Z,29.389261744966444
2024-01-17T11:33:51.438Z,28.315436241610737
2024-01-17T11:37:12.701Z,26.885906040268456
2024-01-17T11:40:32.971Z,27.812080536912752
2024-01-17T11:43:55.674Z,28.328859060402685
2024-01-17T11:47:16.387Z,29.946308724832214
2024-01-17T11:50:36.787Z,30.06040268456376
2024-01-17T11:56:25.505Z,30.664429530201343
2024-01-17T12:00:54.480Z,30.046979865771814
2024-01-17T12:04:14.723Z,30.48993288590604
2024-01-17T12:07:34.245Z,29.91275167785235
2024-01-17T12:10:54.222Z,28.97986577181208
2024-01-17T12:14:15.437Z,30.97986577181208
2024-01-17T12:17:35.821Z,28.322147651006713
2024-01-17T12:24:06.120Z,28.97986577181208
2024-01-17T12:27:26.394Z,28.261744966442954
2024-01-17T12:30:46.823Z,29.06711409395973
2024-01-17T12:34:08.206Z,29.959731543624162
2024-01-17T12:37:28.376Z,29.65771812080537
2024-01-17T12:44:01.966Z,28.0
2024-01-17T12:47:22.146Z,29.120805369127517
2024-01-17T12:50:42.293Z,29.201342281879196
2024-01-17T12:54:02.477Z,29.476510067114095
2024-01-17T12:57:22.436Z,30.369127516778523
2024-01-17T13:00:42.573Z,29.77181208053691
2024-01-17T13:04:03.254Z,30.697986577181208
2024-01-17T13:07:23.398Z,30.322147651006713
2024-01-17T13:10:49.321Z,30.91275167785235
2024-01-17T13:14:09.795Z,31.22818791946309
2024-01-17T13:17:29.249Z,31.516778523489933
2024-01-17T13:24:58.249Z,29.093959731543624
2024-01-17T13:28:18.439Z,30.70469798657718
2024-01-17T13:32:07.971Z,30.543624161073826
2024-01-17T13:35:28.840Z,30.885906040268456
2024-01-17T13:38:48.955Z,29.953020134228186
2024-01-17T13:42:09.827Z,32.033557046979865
2024-01-17T13:45:30.317Z,31.140939597315437
2024-01-17T13:48:51.332Z,33.91275167785235
2024-01-17T13:52:13.616Z,31.691275167785236
2024-01-17T13:55:34.341Z,32.711409395973156
2024-01-17T13:58:54.112Z,30.006711409395972
2024-01-17T14:02:14.154Z,30.161073825503355
2024-01-17T14:06:40.194Z,29.845637583892618
2024-01-17T14:10:00.710Z,30.906040268456376
2024-01-17T14:13:20.660Z,29.644295302013422
2024-01-17T14:21:30.011Z,30.959731543624162
2024-01-17T14:24:50.095Z,31.751677852348994
2024-01-17T14:30:11.532Z,31.825503355704697
2024-01-17T14:33:32.101Z,32.30201342281879
2024-01-17T14:36:52.270Z,31.691275167785236
2024-01-17T14:40:12.263Z,32.65771812080537
2024-01-17T14:43:33.420Z,32.53020134228188
2024-01-17T14:46:54.274Z,30.449664429530202
2024-01-17T14:51:40.001Z,31.778523489932887
2024-01-17T14:55:00.302Z,31.993288590604028
2024-01-17T14:58:20.030Z,30.80536912751678
2024-01-17T15:03:48.122Z,32.86577181208054
2024-01-17T15:08:40.033Z,31.80536912751678
2024-01-17T15:12:00.462Z,31.651006711409394
2024-01-17T15:15:32.203Z,32.11409395973154
2024-01-17T15:18:51.762Z,32.30201342281879
2024-01-17T15:22:11.905Z,31.416107382550337
2024-01-17T15:25:31.872Z,30.583892617449663
2024-01-17T15:28:52.012Z,33.08724832214765
2024-01-17T15:33:02.293Z,33.07382550335571
2024-01-17T15:39:35.827Z,32.50335570469799
2024-01-17T15:44:13.935Z,32.04697986577181
2024-01-17T15:47:34.297Z,33.36241610738255
2024-01-17T15:53:52.996Z,33.261744966442954
2024-01-17T15:57:13.755Z,33.26845637583892
2024-01-17T16:00:33.434Z,34.19463087248322
2024-01-17T16:03:53.337Z,33.30201342281879
2024-01-17T16:07:13.895Z,36.0
2024-01-17T16:12:27.738Z,36.90604026845637
2024-01-17T16:22:52.152Z,38.46308724832215
2024-01-17T16:27:07.518Z,36.624161073825505
2024-01-17T16:30:27.466Z,36.691275167785236
2024-01-17T16:33:47.583Z,38.19463087248322
2024-01-17T16:38:12.235Z,40.16778523489933
2024-01-17T16:42:12.971Z,39.81208053691275
2024-01-17T16:45:33.248Z,41.59731543624161
2024-01-17T16:48:53.281Z,41.214765100671144
2024-01-17T16:52:14.140Z,43.32214765100671
2024-01-17T16:55:34.364Z,37.651006711409394
2024-01-17T16:58:55.409Z,38.86577181208054
2024-01-17T17:02:15.749Z,37.8255033557047
2024-01-17T17:05:35.974Z,37.88590604026846
2024-01-17T17:08:55.605Z,38.58389261744966
2024-01-17T17:12:16.212Z,38.06711409395973
2024-01-17T17:15:36.192Z,39.40268456375839
2024-01-17T17:18:56.095Z,38.51006711409396
2024-01-17T17:22:20.135Z,39.04026845637584
2024-01-17T17:25:44.442Z,37.90604026845637
2024-01-17T17:29:05.370Z,38.59731543624161
2024-01-17T17:32:25.908Z,40.12751677852349
2024-01-17T17:35:46.889Z,40.04026845637584
2024-01-17T17:39:26.459Z,41.93288590604027
2024-01-17T17:42:47.200Z,40.58389261744966
2024-01-17T17:46:07.406Z,41.31543624161074
2024-01-17T17:49:27.412Z,40.79194630872483
2024-01-17T17:52:46.761Z,43.557046979865774
2024-01-17T17:56:07.564Z,41.45637583892618
2024-01-17T17:59:27.499Z,42.1744966442953
2024-01-17T18:02:47.774Z,41.41610738255034
2024-01-17T18:08:22.398Z,51.718120805369125
2024-01-17T18:11:42.631Z,48.48993288590604
2024-01-17T18:15:03.763Z,45.738255033557046
2024-01-17T18:18:24.176Z,47.261744966442954
2024-01-17T18:21:44.102Z,48.06711409395973
2024-01-17T18:25:06.916Z,46.56375838926174
2024-01-17T18:34:33.234Z,61.08724832214765
2024-01-17T18:37:53.809Z,57.986577181208055
2024-01-17T18:44:04.767Z,43.691275167785236
2024-01-17T18:48:29.973Z,43.23489932885906
2024-01-17T18:51:51.812Z,44.63758389261745
2024-01-17T18:55:13.110Z,43.711409395973156
2024-01-17T18:58:33.401Z,44.5503355704698
2024-01-17T19:01:53.482Z,46.12751677852349
2024-01-17T19:11:45.213Z,47.4496644295302
2024-01-17T19:15:05.905Z,48.88590604026846
2024-01-17T19:18:25.294Z,49.13422818791946
2024-01-17T19:21:45.515Z,51.76510067114094
2024-01-17T19:29:52.076Z,54.36241610738255
2024-01-17T19:35:40.053Z,51.57046979865772
2024-01-17T19:41:08.640Z,51.10738255033557
2024-01-17T19:44:27.890Z,51.07382550335571
2024-01-17T19:50:50.956Z,51.12080536912752
2024-01-17T19:54:11.937Z,50.966442953020135
2024-01-17T19:57:32.640Z,49.23489932885906
2024-01-17T20:00:53.181Z,52.100671140939596
2024-01-17T20:04:14.312Z,50.66442953020134
2024-01-17T20:07:34.539Z,50.624161073825505
2024-01-17T20:11:34.301Z,63.25503355704698
2024-01-17T20:14:54.399Z,69.08053691275168
2024-01-17T20:18:14.992Z,68.71812080536913
2024-01-17T20:21:34.851Z,54.758389261744966
2024-01-17T20:26:29.402Z,54.18791946308725
2024-01-17T20:35:05.368Z,58.77181208053691
2024-01-17T20:38:25.525Z,56.70469798657718
2024-01-17T20:42:22.419Z,55.15436241610738
2024-01-17T20:48:36.113Z,54.919463087248324
2024-01-17T20:51:58.048Z,53.58389261744966
2024-01-17T20:55:19.886Z,54.288590604026844
2024-01-17T20:59:06.203Z,56.57046979865772
2024-01-17T21:02:25.625Z,56.73154362416108
2024-01-17T21:05:45.773Z,57.53691275167785
2024-01-17T21:09:06.675Z,58.40939597315436
2024-01-17T21:12:27.613Z,57.57046979865772
2024-01-17T21:16:50.942Z,54.86577181208054
2024-01-17T21:20:11.724Z,54.47651006711409
2024-01-17T21:23:31.684Z,56.69798657718121
2024-01-17T21:26:51.647Z,58.604026845637584
2024-01-17T21:31:38.723Z,57.40268456375839
2024-01-17T21:35:02.037Z,55.74496644295302
2024-01-17T21:38:23.002Z,58.12080536912752
2024-01-17T21:41:42.862Z,59.328859060402685
2024-01-17T21:45:04.419Z,57.56375838926174
2024-01-17T21:48:24.900Z,55.57046979865772
2024-01-17T21:51:45.448Z,56.48322147651007
2024-01-17T21:55:12.609Z,58.7248322147651
2024-01-17T21:58:34.532Z,56.43624161073826
2024-01-17T22:01:56.045Z,57.604026845637584
2024-01-17T22:05:16.458Z,58.52348993288591
2024-01-17T22:08:48.185Z,58.0
2024-01-17T22:13:28.944Z,60.59060402684564
2024-01-17T22:21:22.678Z,60.97315436241611
2024-01-17T22:24:43.923Z,63.624161073825505
2024-01-17T22:30:01.300Z,62.87919463087248
2024-01-17T22:33:22.468Z,64.95302013422818
2024-01-17T22:38:56.679Z,66.12751677852349
2024-01-17T22:42:16.968Z,66.79194630872483
2024-01-17T22:45:36.455Z,66.85906040268456
2024-01-17T22:48:57.418Z,68.36241610738254
2024-01-17T22:55:46.724Z,70.32885906040268
2024-01-17T22:59:08.313Z,68.83892617449665
2024-01-17T23:10:30.789Z,69.22147651006712
2024-01-17T23:14:05.584Z,68.89261744966443
2024-01-17T23:18:18.281Z,69.36241610738254
2024-01-17T23:27:11.051Z,68.30201342281879
2024-01-17T23:30:31.820Z,67.44295302013423
2024-01-17T23:33:53.442Z,67.38926174496645
2024-01-17T23:37:17.814Z,68.77181208053692
2024-01-17T23:40:38.618Z,69.71812080536913
2024-01-17T23:44:00.592Z,68.61073825503355
2024-01-17T23:47:38.539Z,69.61073825503355
2024-01-17T23:51:00.012Z,68.57046979865771
2024-01-17T23:54:20.254Z,70.34228187919463
2024-01-17T23:59:05.388Z,72.18120805369128
